Time;durP1;ratioP1;P1;durP2;ratioP2;P2;SDS_P1;SDS_P2;PMS_P1;PMS_P2;Temp;Humidity;BMP_temperature;BMP_pressure;BME280_temperature;BME280_humidity;BME280_pressure;Samples;Min_cycle;Max_cycle;Signal;HPM_P1;HPM_P2
2022/05/08 00:02:28;;;;;;;4.85;4.10;;;14.20;99.90;;;;;;6184344;23;20410;-83
2022/05/08 00:05:07;;;;;;;7.25;4.22;;;14.20;99.90;;;;;;6162713;23;20076;-83
2022/05/08 00:11:02;;;;;;;8.80;4.35;;;14.00;99.90;;;;;;6160827;23;20025;-84
2022/05/08 00:13:42;;;;;;;6.05;4.25;;;13.90;99.90;;;;;;6159532;23;20424;-83
2022/05/08 00:16:27;;;;;;;5.45;4.32;;;13.90;99.90;;;;;;6184451;23;20024;-84
2022/05/08 00:18:58;;;;;;;9.10;4.43;;;13.90;99.90;;;;;;6159116;23;20064;-84
2022/05/08 00:21:39;;;;;;;7.70;5.20;;;13.90;99.90;;;;;;6159131;23;20092;-83
2022/05/08 00:24:17;;;;;;;6.65;4.72;;;13.90;99.90;;;;;;6159524;23;20056;-83
2022/05/08 00:26:46;;;;;;;6.55;4.90;;;13.90;99.90;;;;;;6184729;23;20005;-83
2022/05/08 00:29:23;;;;;;;5.47;4.70;;;13.80;99.90;;;;;;6160719;23;20005;-82
2022/05/08 00:32:32;;;;;;;7.03;4.85;;;13.80;99.90;;;;;;6158535;23;19998;-85
2022/05/08 00:38:03;;;;;;;8.85;5.07;;;13.70;99.90;;;;;;6137786;23;20336;-85
2022/05/08 00:40:35;;;;;;;10.73;5.38;;;13.80;99.90;;;;;;6160082;23;20068;-84
2022/05/08 00:43:27;;;;;;;10.05;5.00;;;13.70;99.90;;;;;;6161666;23;20447;-84
2022/05/08 00:45:55;;;;;;;9.07;5.32;;;13.70;99.90;;;;;;6157936;23;20404;-84
2022/05/08 00:48:26;;;;;;;9.57;5.28;;;13.60;99.90;;;;;;6162775;23;20013;-85
2022/05/08 00:50:52;;;;;;;8.50;4.93;;;13.70;99.90;;;;;;6160858;23;20318;-84
2022/05/08 00:53:49;;;;;;;9.30;5.57;;;13.70;99.90;;;;;;6163580;23;20447;-85
2022/05/08 00:56:15;;;;;;;7.22;5.45;;;13.70;99.90;;;;;;6157019;23;20057;-86
2022/05/08 00:58:43;;;;;;;6.63;5.35;;;13.70;99.90;;;;;;6179546;23;20032;-86
2022/05/08 01:01:10;;;;;;;8.02;5.63;;;13.70;99.90;;;;;;6155669;23;20009;-86
2022/05/08 01:03:37;;;;;;;7.68;6.25;;;13.70;99.90;;;;;;6179018;23;20437;-85
2022/05/08 01:06:05;;;;;;;7.95;5.55;;;13.70;99.90;;;;;;6192090;23;20006;-86
2022/05/08 01:08:33;;;;;;;9.65;5.65;;;13.80;99.90;;;;;;6190017;23;20016;-86
2022/05/08 01:11:00;;;;;;;7.63;5.50;;;13.80;99.90;;;;;;6164753;23;20005;-86
2022/05/08 01:13:26;;;;;;;10.55;5.97;;;13.70;99.90;;;;;;6163775;23;20001;-86
2022/05/08 01:15:54;;;;;;;8.70;4.80;;;13.70;99.90;;;;;;6162504;23;20137;-86
2022/05/08 01:18:20;;;;;;;6.93;5.38;;;13.70;99.90;;;;;;6161274;23;20025;-86
2022/05/08 01:20:46;;;;;;;6.80;5.53;;;13.70;99.90;;;;;;6161082;23;20005;-86
2022/05/08 01:23:13;;;;;;;12.90;5.80;;;13.70;99.90;;;;;;6160538;23;20033;-86
2022/05/08 01:25:48;;;;;;;13.95;5.93;;;13.70;99.90;;;;;;6159331;23;20375;-86
2022/05/08 01:28:14;;;;;;;8.70;5.95;;;13.70;99.90;;;;;;6184851;23;20014;-86
2022/05/08 01:30:44;;;;;;;9.38;5.85;;;13.60;99.90;;;;;;6183208;23;20001;-86
2022/05/08 01:33:10;;;;;;;7.65;5.55;;;13.50;99.90;;;;;;6160207;23;20084;-86
2022/05/08 01:35:36;;;;;;;11.63;5.97;;;13.60;99.90;;;;;;6160249;23;20424;-85
2022/05/08 01:38:04;;;;;;;7.22;5.50;;;13.50;99.90;;;;;;6184026;23;20020;-86
2022/05/08 01:40:30;;;;;;;8.45;5.68;;;13.40;99.90;;;;;;6160853;23;20451;-85
2022/05/08 01:42:57;;;;;;;8.88;6.30;;;13.30;99.90;;;;;;6160317;23;20001;-85
2022/05/08 01:45:23;;;;;;;9.02;5.80;;;13.30;99.90;;;;;;6160709;23;20001;-84
2022/05/08 01:50:37;;;;;;;7.22;5.20;;;13.30;99.90;;;;;;6159954;23;20396;-85
2022/05/08 01:53:03;;;;;;;6.90;5.90;;;13.20;99.90;;;;;;6182738;23;19998;-85
2022/05/08 01:55:29;;;;;;;6.28;5.53;;;13.20;99.90;;;;;;6158882;23;20004;-85
2022/05/08 01:57:55;;;;;;;10.70;5.97;;;13.20;99.90;;;;;;6156761;23;20028;-85
2022/05/08 02:00:22;;;;;;;7.95;5.93;;;13.10;99.90;;;;;;6159130;23;20012;-86
2022/05/08 02:02:48;;;;;;;7.85;5.78;;;13.20;99.90;;;;;;6159344;23;20001;-85
2022/05/08 02:05:20;;;;;;;9.35;5.60;;;13.20;99.90;;;;;;6157561;23;20039;-86
2022/05/08 02:07:47;;;;;;;10.18;6.10;;;13.10;99.90;;;;;;6157088;23;20009;-86
2022/05/08 02:10:14;;;;;;;8.10;5.60;;;13.00;99.90;;;;;;6180563;23;20084;-86
2022/05/08 02:12:41;;;;;;;11.95;6.22;;;13.00;99.90;;;;;;6180001;23;20100;-85
2022/05/08 02:15:08;;;;;;;6.90;5.35;;;12.90;99.90;;;;;;6156880;23;20025;-86
2022/05/08 02:17:35;;;;;;;9.68;6.32;;;12.90;99.90;;;;;;6155546;23;19998;-85
2022/05/08 02:20:01;;;;;;;13.07;5.97;;;12.80;99.90;;;;;;6179414;23;20002;-87
2022/05/08 02:22:27;;;;;;;9.82;5.93;;;12.80;99.90;;;;;;6156702;23;20053;-85
2022/05/08 02:24:52;;;;;;;7.00;6.07;;;12.70;99.90;;;;;;6156462;23;20001;-85
2022/05/08 02:27:18;;;;;;;7.07;5.50;;;12.70;99.90;;;;;;6156433;23;20001;-85
2022/05/08 02:29:48;;;;;;;8.88;6.47;;;12.80;99.90;;;;;;6156427;23;20009;-85
2022/05/08 02:32:14;;;;;;;8.00;5.60;;;12.70;99.90;;;;;;6155658;23;20024;-86
2022/05/08 02:34:40;;;;;;;9.05;6.32;;;12.70;99.90;;;;;;6154543;23;20424;-87
2022/05/08 02:37:06;;;;;;;8.90;6.25;;;12.70;99.90;;;;;;6178800;23;20008;-85
2022/05/08 02:39:32;;;;;;;12.73;6.72;;;12.60;99.90;;;;;;6154691;23;20344;-86
2022/05/08 02:41:57;;;;;;;10.60;6.40;;;12.60;99.90;;;;;;6154021;23;20432;-86
2022/05/08 02:44:23;;;;;;;7.70;6.65;;;12.60;99.90;;;;;;6178941;23;20425;-86
2022/05/08 02:46:48;;;;;;;7.32;5.95;;;12.60;99.90;;;;;;6155678;23;20479;-86
2022/05/08 02:49:14;;;;;;;7.38;5.47;;;12.50;99.90;;;;;;6156333;23;20005;-85
2022/05/08 02:51:40;;;;;;;7.75;6.05;;;12.50;99.90;;;;;;6156286;23;19997;-85
2022/05/08 02:54:05;;;;;;;8.48;6.82;;;12.40;99.90;;;;;;6179353;23;20032;-86
2022/05/08 02:59:15;;;;;;;13.63;7.43;;;12.50;99.90;;;;;;6156199;23;20403;-85
2022/05/08 03:01:41;;;;;;;12.45;6.75;;;12.50;99.90;;;;;;6169359;23;20057;-86
2022/05/08 03:04:07;;;;;;;10.18;6.95;;;12.50;99.90;;;;;;6168583;23;20002;-86
2022/05/08 03:06:32;;;;;;;9.25;7.15;;;12.40;99.90;;;;;;6163526;23;20002;-86
2022/05/08 03:08:58;;;;;;;8.80;6.55;;;12.30;99.90;;;;;;6187975;23;20009;-85
2022/05/08 03:11:27;;;;;;;14.30;6.57;;;12.30;99.90;;;;;;6163670;23;20001;-86
2022/05/08 03:13:54;;;;;;;8.60;6.30;;;12.30;99.90;;;;;;6162958;23;19997;-86
2022/05/08 03:16:21;;;;;;;10.02;6.50;;;12.40;99.90;;;;;;6185488;23;20092;-86
2022/05/08 03:18:47;;;;;;;9.63;6.68;;;12.30;99.90;;;;;;6160503;23;20032;-85
2022/05/08 03:21:13;;;;;;;11.10;6.68;;;12.30;99.90;;;;;;6162214;23;20339;-86
2022/05/08 03:23:40;;;;;;;9.20;5.63;;;12.30;99.90;;;;;;6158900;23;20400;-86
2022/05/08 03:26:07;;;;;;;8.20;6.22;;;12.30;99.90;;;;;;6160690;23;20378;-86
2022/05/08 03:28:39;;;;;;;10.02;6.40;;;12.20;99.90;;;;;;6160612;23;20064;-85
2022/05/08 03:31:05;;;;;;;10.38;7.00;;;12.00;99.90;;;;;;6158698;23;20444;-86
2022/05/08 03:33:32;;;;;;;8.23;6.28;;;12.00;99.90;;;;;;6158527;23;20005;-85
2022/05/08 03:35:58;;;;;;;10.43;6.60;;;12.10;99.90;;;;;;6157682;23;20005;-86
2022/05/08 03:38:25;;;;;;;7.40;5.65;;;12.00;99.90;;;;;;6158505;23;20566;-85
2022/05/08 03:40:50;;;;;;;10.18;7.00;;;11.90;99.90;;;;;;6181631;23;20005;-85
2022/05/08 03:43:16;;;;;;;12.75;6.72;;;11.80;99.90;;;;;;6158462;23;20009;-85
2022/05/08 03:45:43;;;;;;;10.68;7.13;;;11.90;99.90;;;;;;6158345;23;20392;-86
2022/05/08 03:48:09;;;;;;;9.48;7.38;;;11.80;99.90;;;;;;6157804;23;20040;-86
2022/05/08 03:50:36;;;;;;;8.25;6.57;;;11.70;99.90;;;;;;6158649;23;20368;-86
2022/05/08 03:53:02;;;;;;;8.18;6.20;;;11.70;99.90;;;;;;6157306;23;19998;-85
2022/05/08 03:55:28;;;;;;;11.43;6.53;;;11.60;99.90;;;;;;6157881;23;20085;-86
2022/05/08 03:57:54;;;;;;;8.45;6.68;;;11.60;99.90;;;;;;6158313;23;20016;-85
2022/05/08 04:00:20;;;;;;;10.38;6.57;;;11.70;99.90;;;;;;6156420;23;20033;-85
2022/05/08 04:02:46;;;;;;;8.20;6.13;;;11.70;99.90;;;;;;6156158;23;20005;-86
2022/05/08 04:05:12;;;;;;;8.25;6.40;;;11.60;99.90;;;;;;6156086;23;20005;-85
2022/05/08 04:07:38;;;;;;;8.23;6.72;;;11.60;99.90;;;;;;6156153;23;20005;-85
2022/05/08 04:10:04;;;;;;;10.13;6.28;;;11.60;99.90;;;;;;6179807;23;20006;-85
2022/05/08 04:12:30;;;;;;;7.45;5.90;;;11.50;99.90;;;;;;6158528;23;20010;-85
2022/05/08 04:14:56;;;;;;;8.95;6.15;;;11.50;99.90;;;;;;6157473;23;20455;-86
2022/05/08 04:17:21;;;;;;;8.27;6.35;;;11.50;99.90;;;;;;6179875;23;20031;-85
2022/05/08 04:19:47;;;;;;;8.93;6.40;;;11.40;99.90;;;;;;6157217;23;20452;-86
2022/05/08 04:24:57;;;;;;;9.23;6.78;;;11.40;99.90;;;;;;6157431;23;20017;-86
2022/05/08 04:27:23;;;;;;;8.23;5.63;;;11.40;99.90;;;;;;6157152;23;20010;-86
2022/05/08 04:29:49;;;;;;;12.57;7.00;;;11.40;99.90;;;;;;6180364;23;20005;-86
2022/05/08 04:32:15;;;;;;;8.25;6.25;;;11.40;99.90;;;;;;6157149;23;20025;-86
2022/05/08 04:34:40;;;;;;;11.85;6.95;;;11.40;99.90;;;;;;6155452;23;19998;-86
2022/05/08 04:37:06;;;;;;;10.27;7.55;;;11.40;99.90;;;;;;6157274;23;20040;-86
2022/05/08 04:39:32;;;;;;;14.02;7.40;;;11.40;99.90;;;;;;6180140;23;20463;-86
2022/05/08 04:41:58;;;;;;;14.15;7.40;;;11.40;99.90;;;;;;6156483;23;20548;-86
2022/05/08 04:44:24;;;;;;;9.98;7.38;;;11.30;99.90;;;;;;6157436;23;20012;-86
2022/05/08 04:46:50;;;;;;;10.35;7.10;;;11.40;99.90;;;;;;6156512;23;20080;-86
2022/05/08 04:49:16;;;;;;;8.98;7.13;;;11.40;99.90;;;;;;6156114;23;20482;-87
2022/05/08 04:51:42;;;;;;;7.72;6.78;;;11.50;99.90;;;;;;6157416;23;20077;-85
2022/05/08 04:54:08;;;;;;;10.82;7.75;;;11.50;99.90;;;;;;6157916;23;20462;-85
2022/05/08 04:56:33;;;;;;;12.45;7.22;;;11.40;99.90;;;;;;6158496;23;20006;-85
2022/05/08 04:58:59;;;;;;;13.13;7.93;;;11.50;99.90;;;;;;6160474;23;20057;-86
2022/05/08 05:01:25;;;;;;;11.48;7.57;;;11.50;99.90;;;;;;6160328;23;20036;-85
2022/05/08 05:03:51;;;;;;;11.00;7.38;;;11.60;99.90;;;;;;6160569;23;20012;-86
2022/05/08 05:06:17;;;;;;;9.63;7.72;;;11.60;99.90;;;;;;6182375;23;20328;-85
2022/05/08 05:08:43;;;;;;;14.10;7.70;;;11.70;99.90;;;;;;6160160;23;20012;-86
2022/05/08 05:11:10;;;;;;;11.68;7.53;;;11.70;99.90;;;;;;6159077;23;20056;-86
2022/05/08 05:13:36;;;;;;;11.25;8.15;;;11.80;99.90;;;;;;6159859;23;20339;-85
2022/05/08 05:16:03;;;;;;;16.02;8.35;;;11.90;99.90;;;;;;6182255;23;19998;-85
2022/05/08 05:18:28;;;;;;;12.05;8.05;;;11.90;99.90;;;;;;6182670;23;20013;-85
2022/05/08 05:21:09;;;;;;;14.80;8.05;;;11.90;99.90;;;;;;6158525;23;20009;-86
2022/05/08 05:23:38;;;;;;;14.02;8.80;;;12.00;99.90;;;;;;6182194;23;20017;-86
2022/05/08 05:26:04;;;;;;;11.40;8.02;;;12.10;99.90;;;;;;6159258;23;20061;-85
2022/05/08 05:28:30;;;;;;;11.73;8.43;;;12.20;99.90;;;;;;6157400;23;20005;-87
2022/05/08 05:30:56;;;;;;;11.73;8.15;;;12.20;99.90;;;;;;6159990;23;20002;-85
2022/05/08 05:33:21;;;;;;;11.63;7.95;;;12.30;99.90;;;;;;6158772;23;20001;-84
2022/05/08 05:35:47;;;;;;;12.50;7.97;;;12.40;99.90;;;;;;6181353;23;20001;-85
2022/05/08 05:38:13;;;;;;;15.50;8.23;;;12.50;99.90;;;;;;6158251;23;20352;-85
2022/05/08 05:40:38;;;;;;;16.50;7.97;;;12.50;99.90;;;;;;6158507;23;20011;-84
2022/05/08 05:43:04;;;;;;;10.45;7.65;;;12.60;99.90;;;;;;6157606;23;20002;-84
2022/05/08 05:45:30;;;;;;;10.90;8.05;;;12.70;99.90;;;;;;6156160;23;20084;-84
2022/05/08 05:47:59;;;;;;;11.52;8.10;;;12.70;99.90;;;;;;6154510;23;20014;-84
2022/05/08 05:50:26;;;;;;;15.80;8.40;;;12.70;99.90;;;;;;6154337;23;20069;-84
2022/05/08 05:52:53;;;;;;;11.25;8.30;;;12.80;99.90;;;;;;6157911;23;20021;-85
2022/05/08 05:55:19;;;;;;;11.68;7.68;;;12.90;99.90;;;;;;6155712;23;20005;-85
2022/05/08 05:57:45;;;;;;;10.00;7.45;;;13.00;99.90;;;;;;6180405;23;20388;-85
2022/05/08 06:00:13;;;;;;;12.48;7.45;;;13.00;99.90;;;;;;6156206;23;20006;-85
2022/05/08 06:02:43;;;;;;;13.25;7.00;;;13.10;99.90;;;;;;6179712;23;20006;-85
2022/05/08 06:05:10;;;;;;;9.43;6.53;;;13.10;99.90;;;;;;6156807;23;19998;-85
2022/05/08 06:07:37;;;;;;;10.23;6.78;;;13.20;99.90;;;;;;6155890;23;20081;-85
2022/05/08 06:10:06;;;;;;;10.27;6.68;;;13.40;99.90;;;;;;6150694;23;20012;-86
2022/05/08 06:12:31;;;;;;;10.60;7.10;;;13.40;99.90;;;;;;6156226;23;20022;-85
2022/05/08 06:14:57;;;;;;;12.40;6.47;;;13.40;99.90;;;;;;6179253;23;20009;-85
2022/05/08 06:17:23;;;;;;;9.35;6.50;;;13.50;99.90;;;;;;6179210;23;20009;-86
2022/05/08 06:19:48;;;;;;;8.60;6.10;;;13.50;99.90;;;;;;6156723;23;20097;-86
2022/05/08 06:22:14;;;;;;;12.02;7.47;;;13.60;99.90;;;;;;6154691;23;20010;-85
2022/05/08 06:24:40;;;;;;;9.93;6.60;;;13.70;99.90;;;;;;6154641;23;20096;-85
2022/05/08 06:27:06;;;;;;;9.60;6.45;;;13.70;99.90;;;;;;6156261;23;20012;-84
2022/05/08 06:29:32;;;;;;;8.20;5.95;;;13.80;99.90;;;;;;6156942;23;20428;-86
2022/05/08 06:31:58;;;;;;;15.02;6.55;;;13.80;99.90;;;;;;6179552;23;20005;-85
2022/05/08 06:34:24;;;;;;;8.68;6.40;;;14.00;99.90;;;;;;6155969;23;19998;-85
2022/05/08 06:36:49;;;;;;;12.07;6.72;;;14.00;99.90;;;;;;6154819;23;20057;-84
2022/05/08 06:39:15;;;;;;;9.75;6.38;;;14.10;99.90;;;;;;6154606;23;20060;-84
2022/05/08 06:41:41;;;;;;;8.65;5.82;;;14.10;99.90;;;;;;6154191;23;20005;-85
2022/05/08 06:44:07;;;;;;;12.82;6.28;;;14.20;99.90;;;;;;6178309;23;20009;-85
2022/05/08 06:46:35;;;;;;;12.02;6.32;;;14.30;99.90;;;;;;6154871;23;20124;-84
2022/05/08 06:49:02;;;;;;;12.10;6.60;;;14.30;99.90;;;;;;6154518;23;20033;-83
2022/05/08 06:51:28;;;;;;;7.32;5.90;;;14.40;99.90;;;;;;6156092;23;20025;-84
2022/05/08 06:53:53;;;;;;;13.15;5.88;;;14.50;99.90;;;;;;6155676;23;20432;-83
2022/05/08 06:56:19;;;;;;;9.13;5.30;;;14.50;99.90;;;;;;6158493;23;20025;-84
2022/05/08 07:01:35;;;;;;;8.70;5.45;;;14.60;99.90;;;;;;6159298;23;20037;-83
2022/05/08 07:04:08;;;;;;;7.95;5.03;;;14.70;99.90;;;;;;6157660;23;20010;-83
2022/05/08 07:06:35;;;;;;;9.45;5.03;;;14.70;99.90;;;;;;6159190;23;20018;-83
2022/05/08 07:09:00;;;;;;;7.70;4.88;;;14.80;99.90;;;;;;6160900;23;20013;-84
2022/05/08 07:11:27;;;;;;;8.32;5.38;;;14.90;99.90;;;;;;6182375;23;20009;-84
2022/05/08 07:13:52;;;;;;;8.68;5.18;;;15.00;99.90;;;;;;6181265;23;20009;-84
2022/05/08 07:16:18;;;;;;;8.75;5.80;;;15.10;99.90;;;;;;6163322;23;20002;-85
2022/05/08 07:18:44;;;;;;;8.40;5.47;;;15.20;99.90;;;;;;6162473;23;20006;-84
2022/05/08 07:21:09;;;;;;;9.43;4.97;;;15.10;99.90;;;;;;6162037;23;20002;-84
2022/05/08 07:23:35;;;;;;;9.05;4.97;;;15.20;99.90;;;;;;6162169;23;20012;-85
2022/05/08 07:26:01;;;;;;;6.47;4.50;;;15.30;99.90;;;;;;6167612;23;20006;-84
2022/05/08 07:28:28;;;;;;;11.20;5.15;;;15.40;99.90;;;;;;6193126;23;20005;-84
2022/05/08 07:30:54;;;;;;;9.07;4.75;;;15.40;99.90;;;;;;6179932;23;20025;-83
2022/05/08 07:33:19;;;;;;;8.55;4.65;;;15.60;99.90;;;;;;6179031;23;20097;-84
2022/05/08 07:38:32;;;;;;;6.95;4.35;;;15.70;99.90;;;;;;6154484;23;20016;-85
2022/05/08 07:40:58;;;;;;;8.15;4.53;;;15.80;99.90;;;;;;6155164;23;20021;-85
2022/05/08 07:43:25;;;;;;;17.88;4.60;;;15.90;99.90;;;;;;6178903;23;20017;-85
2022/05/08 07:45:50;;;;;;;5.50;3.67;;;16.00;99.90;;;;;;6156804;23;20009;-85
2022/05/08 07:48:16;;;;;;;9.65;3.90;;;16.00;99.90;;;;;;6159620;23;20368;-84
2022/05/08 07:50:42;;;;;;;4.55;3.65;;;16.10;99.90;;;;;;6160349;23;20001;-85
2022/05/08 07:53:08;;;;;;;7.28;4.07;;;16.30;99.90;;;;;;6159003;23;20077;-86
2022/05/08 07:55:34;;;;;;;7.57;4.50;;;16.40;99.90;;;;;;6198313;23;20020;-87
2022/05/08 07:58:00;;;;;;;8.25;4.25;;;16.50;99.90;;;;;;6199477;23;20021;-86
2022/05/08 08:00:26;;;;;;;4.63;3.67;;;16.60;99.90;;;;;;6165316;23;20009;-85
2022/05/08 08:02:51;;;;;;;8.10;3.72;;;16.60;99.90;;;;;;6164096;23;20422;-86
2022/05/08 08:05:17;;;;;;;6.35;3.80;;;16.70;99.90;;;;;;6184003;23;20013;-86
2022/05/08 08:07:43;;;;;;;9.65;3.83;;;16.70;99.90;;;;;;6182077;23;20005;-86
2022/05/08 08:10:14;;;;;;;6.78;4.22;;;16.80;98.80;;;;;;6158840;23;20017;-85
2022/05/08 08:12:40;;;;;;;5.40;3.75;;;16.80;99.70;;;;;;6182910;23;20001;-85
2022/05/08 08:15:06;;;;;;;7.90;3.65;;;16.90;98.80;;;;;;6158423;23;20016;-85
2022/05/08 08:17:32;;;;;;;4.78;3.67;;;17.10;98.70;;;;;;6180746;23;20033;-86
2022/05/08 08:19:58;;;;;;;4.70;3.40;;;17.20;97.80;;;;;;6157854;23;19997;-87
2022/05/08 08:22:24;;;;;;;6.20;3.30;;;17.40;96.30;;;;;;6180567;23;20002;-87
2022/05/08 08:24:50;;;;;;;4.70;3.28;;;17.40;95.80;;;;;;6156245;23;20012;-87
2022/05/08 08:27:16;;;;;;;6.50;3.55;;;17.40;95.90;;;;;;6156993;23;20033;-87
2022/05/08 08:29:43;;;;;;;6.85;3.20;;;17.50;93.80;;;;;;6155804;23;20325;-87
2022/05/08 08:32:09;;;;;;;7.28;3.35;;;17.60;93.90;;;;;;6155721;23;20392;-87
2022/05/08 08:34:35;;;;;;;7.00;3.30;;;17.60;93.50;;;;;;6156849;23;20332;-85
2022/05/08 08:37:01;;;;;;;6.55;4.63;;;17.70;92.40;;;;;;6157706;23;20001;-87
2022/05/08 08:39:34;;;;;;;8.95;3.85;;;17.80;91.80;;;;;;6157701;23;20028;-88
2022/05/08 08:42:00;;;;;;;6.40;4.40;;;17.80;90.80;;;;;;6178374;23;20587;-88
2022/05/08 08:50:06;;;;;;;5.20;3.85;;;18.20;90.40;;;;;;6162782;23;20033;-88
2022/05/08 08:52:32;;;;;;;5.13;3.55;;;18.20;88.60;;;;;;6158041;23;20060;-88
2022/05/08 08:55:05;;;;;;;4.95;3.60;;;18.30;89.90;;;;;;6156815;23;20009;-89
2022/05/08 08:57:45;;;;;;;9.82;3.58;;;18.30;87.90;;;;;;6157134;23;20017;-89
2022/05/08 09:00:14;;;;;;;4.20;3.57;;;18.30;85.20;;;;;;6156309;23;20332;-88
2022/05/08 09:02:52;;;;;;;7.18;3.50;;;18.50;85.90;;;;;;6154900;23;20006;-88
2022/05/08 09:05:30;;;;;;;5.70;3.47;;;18.60;83.00;;;;;;6182431;23;20005;-88
2022/05/08 09:07:58;;;;;;;6.75;3.70;;;18.70;80.60;;;;;;6129924;23;20009;-86
2022/05/08 09:10:27;;;;;;;5.60;3.40;;;18.70;81.40;;;;;;6155890;23;20006;-86
2022/05/08 09:12:53;;;;;;;5.72;3.30;;;18.80;81.20;;;;;;6153726;23;20317;-86
2022/05/08 09:15:36;;;;;;;5.60;3.05;;;19.00;78.10;;;;;;6156029;23;20002;-87
2022/05/08 09:18:26;;;;;;;7.60;3.58;;;19.00;80.70;;;;;;6156430;23;20001;-87
2022/05/08 09:21:54;;;;;;;5.07;2.97;;;19.20;77.30;;;;;;6177723;23;20030;-87
2022/05/08 09:23:45;;;;;;;6.50;3.67;;;19.20;77.90;;;;;;6155102;23;20005;-86
2022/05/08 09:26:10;;;;;;;4.78;3.22;;;19.40;77.50;;;;;;6179025;23;20016;-86
2022/05/08 09:28:42;;;;;;;4.70;3.00;;;19.40;77.00;;;;;;6178964;23;20092;-87
2022/05/08 09:31:21;;;;;;;4.50;2.92;;;19.60;78.10;;;;;;6178738;23;20029;-85
2022/05/08 09:33:49;;;;;;;5.30;3.08;;;19.80;75.80;;;;;;6157148;23;20059;-85
2022/05/08 09:36:23;;;;;;;5.55;3.10;;;19.90;73.70;;;;;;6179514;23;20003;-85
2022/05/08 09:38:58;;;;;;;4.78;2.97;;;20.00;73.00;;;;;;6154751;23;20160;-85
2022/05/08 09:41:30;;;;;;;3.05;2.40;;;20.00;73.60;;;;;;6178980;23;20013;-87
2022/05/08 09:47:07;;;;;;;;;;;20.10;71.80;;;;;;6138951;23;20017;-85
2022/05/08 09:49:34;;;;;;;3.67;2.35;;;20.20;68.60;;;;;;6179097;23;19979;-86
2022/05/08 09:52:24;;;;;;;4.95;3.10;;;20.20;68.10;;;;;;6179532;23;20006;-86
2022/05/08 09:54:50;;;;;;;6.45;3.03;;;20.30;66.20;;;;;;6184656;23;20080;-86
2022/05/08 09:57:22;;;;;;;5.82;3.35;;;20.40;67.00;;;;;;6162517;23;20001;-87
2022/05/08 10:00:00;;;;;;;3.30;2.92;;;20.40;68.00;;;;;;6185161;23;20333;-87
2022/05/08 10:02:40;;;;;;;4.40;2.50;;;20.50;68.20;;;;;;6163583;23;20342;-88
2022/05/08 10:05:16;;;;;;;4.53;3.13;;;20.60;68.60;;;;;;6180060;23;20010;-86
2022/05/08 10:07:54;;;;;;;6.03;3.03;;;20.70;66.60;;;;;;6159660;23;20024;-86
2022/05/08 10:15:51;;;;;;;4.97;2.65;;;20.80;64.50;;;;;;6159416;23;20024;-86
2022/05/08 10:18:32;;;;;;;4.32;2.60;;;20.80;65.20;;;;;;6180672;23;20087;-87
2022/05/08 10:21:12;;;;;;;4.75;2.75;;;20.70;62.20;;;;;;6157597;23;20340;-87
2022/05/08 10:23:54;;;;;;;4.43;2.53;;;20.70;63.70;;;;;;6157092;23;20088;-86
2022/05/08 10:26:43;;;;;;;9.52;2.95;;;20.70;62.20;;;;;;6157505;23;20026;-85
2022/05/08 10:29:13;;;;;;;4.30;2.47;;;20.80;61.90;;;;;;6159013;23;20006;-85
2022/05/08 10:32:09;;;;;;;20.45;3.15;;;20.70;62.10;;;;;;6156978;23;20029;-84
2022/05/08 10:35:48;;;;;;;4.15;2.38;;;20.70;62.50;;;;;;6161172;23;20242;-85
2022/05/08 10:38:16;;;;;;;4.80;2.28;;;20.90;60.40;;;;;;6042378;23;20007;-84
2022/05/08 10:40:43;;;;;;;7.70;2.60;;;21.00;60.10;;;;;;6102882;23;20012;-84
2022/05/08 10:43:25;;;;;;;4.78;2.55;;;21.10;59.50;;;;;;6150895;23;20074;-84
2022/05/08 10:45:52;;;;;;;10.50;3.05;;;21.00;59.70;;;;;;6163248;23;20009;-84
2022/05/08 10:48:25;;;;;;;5.13;2.58;;;21.00;58.20;;;;;;6198291;23;20013;-85
2022/05/08 10:50:56;;;;;;;5.47;3.15;;;21.00;59.60;;;;;;6163925;23;20005;-84
2022/05/08 10:53:27;;;;;;;;;;;20.90;60.30;;;;;;6163742;23;20385;-86
2022/05/08 10:56:17;;;;;;;2.67;2.40;;;21.20;60.40;;;;;;6163761;23;19935;-86
2022/05/08 10:59:53;;;;;;;8.02;2.75;;;21.50;58.60;;;;;;6189237;23;20017;-85
2022/05/08 11:03:28;;;;;;;4.47;2.40;;;21.70;57.90;;;;;;6050644;23;20110;-83
2022/05/08 11:06:10;;;;;;;2.30;2.10;;;21.60;57.40;;;;;;6124851;23;20013;-84
2022/05/08 11:12:40;;;;;;;4.13;2.30;;;21.30;57.70;;;;;;6156641;23;20016;-84
2022/05/08 11:15:29;;;;;;;6.35;2.40;;;21.40;58.50;;;;;;6172029;23;20010;-83
2022/05/08 11:18:43;;;;;;;6.35;3.17;;;21.40;57.90;;;;;;6155714;23;20004;-84
2022/05/08 11:21:28;;;;;;;4.88;2.88;;;21.40;57.50;;;;;;6179050;23;20089;-84
2022/05/08 11:27:58;;;;;;;3.70;2.42;;;21.70;57.50;;;;;;6075804;23;20003;-85
2022/05/08 11:31:23;;;;;;;4.22;2.50;;;21.80;58.00;;;;;;6178520;23;20010;-84
2022/05/08 11:37:17;;;;;;;5.43;3.00;;;22.80;52.00;;;;;;6126402;23;20032;-85
2022/05/08 11:39:43;;;;;;;3.38;2.70;;;23.40;52.60;;;;;;6158329;23;20005;-84
2022/05/08 11:42:09;;;;;;;4.47;2.78;;;23.30;49.50;;;;;;6156097;23;20002;-85
2022/05/08 11:44:35;;;;;;;7.43;2.20;;;23.10;50.90;;;;;;6156846;23;20387;-85
2022/05/08 11:47:01;;;;;;;4.28;2.33;;;22.90;50.90;;;;;;6180414;23;20020;-84
2022/05/08 11:49:29;;;;;;;11.70;2.78;;;23.30;50.70;;;;;;6155651;23;20589;-84
2022/05/08 11:51:58;;;;;;;4.20;2.45;;;24.10;48.70;;;;;;6157688;23;20016;-84
2022/05/08 11:54:35;;;;;;;5.07;2.60;;;24.50;48.40;;;;;;6181165;23;20531;-83
2022/05/08 11:57:13;;;;;;;4.25;2.63;;;24.30;48.80;;;;;;6159074;23;19998;-83
2022/05/08 11:59:39;;;;;;;4.60;2.92;;;24.00;49.30;;;;;;6180327;23;20005;-83
2022/05/08 12:02:05;;;;;;;5.03;2.60;;;23.60;48.80;;;;;;6180274;23;20226;-84
2022/05/08 12:04:33;;;;;;;8.25;2.55;;;23.20;49.50;;;;;;6179731;23;20006;-84
2022/05/08 12:07:08;;;;;;;3.97;2.25;;;23.00;49.60;;;;;;6178409;23;20506;-86
2022/05/08 12:09:55;;;;;;;4.30;2.70;;;23.00;50.50;;;;;;6145039;23;20125;-84
2022/05/08 12:12:26;;;;;;;4.05;2.22;;;23.20;50.00;;;;;;6177669;23;20037;-84
2022/05/08 12:14:59;;;;;;;5.38;2.72;;;23.50;49.20;;;;;;6156931;23;20002;-84
2022/05/08 12:17:26;;;;;;;3.47;2.33;;;23.40;50.20;;;;;;6179208;23;20068;-84
2022/05/08 12:20:00;;;;;;;3.67;2.42;;;23.40;49.90;;;;;;6157981;23;20006;-86
2022/05/08 12:22:28;;;;;;;8.10;2.58;;;23.30;50.00;;;;;;6181756;23;20033;-84
2022/05/08 12:24:58;;;;;;;5.68;2.70;;;23.20;51.30;;;;;;6158105;23;20006;-84
2022/05/08 12:27:24;;;;;;;5.20;2.83;;;23.20;50.60;;;;;;6182110;23;20005;-84
2022/05/08 12:29:50;;;;;;;2.55;2.25;;;23.40;49.30;;;;;;6182678;23;20017;-87
2022/05/08 12:32:20;;;;;;;4.55;2.30;;;23.80;47.40;;;;;;6157553;23;20002;-91
2022/05/08 12:35:15;;;;;;;4.53;2.63;;;23.80;47.00;;;;;;6157435;23;20001;-89
2022/05/08 12:37:41;;;;;;;3.17;2.30;;;23.80;48.40;;;;;;6177209;23;19998;-88
2022/05/08 12:40:09;;;;;;;4.10;2.42;;;23.90;47.40;;;;;;6207450;23;20013;-91
2022/05/08 12:42:35;;;;;;;5.72;2.33;;;23.70;48.50;;;;;;6206682;23;20013;-87
2022/05/08 12:45:01;;;;;;;5.60;1.92;;;23.70;47.50;;;;;;6180038;23;20064;-86
2022/05/08 12:47:27;;;;;;;6.00;2.65;;;23.80;47.30;;;;;;6155905;23;20522;-87
2022/05/08 12:49:53;;;;;;;19.33;4.15;;;24.00;47.50;;;;;;6183314;23;20005;-88
2022/05/08 12:52:19;;;;;;;6.95;2.60;;;24.00;47.80;;;;;;6206237;23;20002;-87
2022/05/08 12:54:46;;;;;;;2.72;2.20;;;24.10;46.70;;;;;;6180944;23;20009;-87
2022/05/08 12:59:42;;;;;;;3.67;2.35;;;24.10;46.20;;;;;;6179774;23;20072;-86
2022/05/08 13:00:03;;;;;;;2.58;1.75;;;24.30;46.30;;;;;;6156039;23;20284;-87
2022/05/08 13:02:29;;;;;;;4.68;2.50;;;24.30;46.30;;;;;;6156613;23;20016;-87
2022/05/08 13:04:55;;;;;;;3.28;2.35;;;24.20;46.60;;;;;;6156408;23;20068;-86
2022/05/08 13:07:21;;;;;;;2.47;1.92;;;24.30;44.10;;;;;;6178921;23;20037;-88
2022/05/08 13:09:49;;;;;;;7.07;2.10;;;24.40;44.00;;;;;;6155961;23;20506;-86
2022/05/08 13:12:14;;;;;;;4.10;2.15;;;24.20;43.90;;;;;;6155889;23;20107;-87
2022/05/08 13:14:43;;;;;;;8.02;2.63;;;24.10;44.30;;;;;;6155831;23;19997;-85
2022/05/08 13:17:10;;;;;;;3.40;1.98;;;23.90;44.10;;;;;;6179288;23;20435;-89
2022/05/08 13:19:36;;;;;;;2.97;2.05;;;23.90;44.90;;;;;;6155558;23;20009;-87
2022/05/08 13:22:06;;;;;;;5.82;3.03;;;24.30;45.20;;;;;;6178692;23;20452;-87
2022/05/08 13:24:45;;;;;;;5.13;2.15;;;24.80;45.00;;;;;;6179948;23;20037;-85
2022/05/08 13:27:43;;;;;;;4.63;2.63;;;25.30;44.60;;;;;;6179416;23;20072;-84
2022/05/08 13:30:43;;;;;;;3.47;2.33;;;25.50;41.90;;;;;;6154257;23;20016;-86
2022/05/08 13:33:15;;;;;;;5.90;2.55;;;25.40;43.50;;;;;;6156438;23;20005;-86
2022/05/08 13:35:56;;;;;;;3.05;2.45;;;25.50;43.80;;;;;;6156678;23;20010;-85
2022/05/08 13:38:53;;;;;;;5.50;2.10;;;25.20;41.10;;;;;;6177682;23;20096;-85
2022/05/08 13:41:39;;;;;;;6.28;2.20;;;24.90;42.80;;;;;;6105852;23;20036;-85
2022/05/08 13:44:09;;;;;;;3.55;2.10;;;24.70;42.50;;;;;;6179015;23;20012;-85
2022/05/08 13:49:27;;;;;;;2.78;1.70;;;24.20;44.00;;;;;;6183610;23;20072;-85
2022/05/08 13:52:07;;;;;;;2.80;2.00;;;24.20;44.80;;;;;;6186519;23;20005;-86